This is the latest recevied weather packets stored in our database for station/object WA3NOA-2. If no packets are shown the sender has not sent any weather packets the latest 10 day(s).
| Time | Temp. | Humidity | Pressure | Rain* | Wind** | Luminosity | Snow |
|---|---|---|---|---|---|---|---|
| 1778196126 | 15.56° C | 45% | 1001.9 hPa | 0 mm | - | - | - |
| 1778195888 | 15.56° C | 45% | 1001.9 hPa | 0 mm | - | - | - |
| 1778195826 | 15.56° C | 46% | 1002 hPa | 0 mm | - | - | - |
| 1778195526 | 15.56° C | 43% | 1001.9 hPa | 0 mm | - | - | - |
| 1778195226 | 15.56° C | 45% | 1002 hPa | 0 mm | - | - | - |
| 1778194987 | 15.56° C | 44% | 1002 hPa | 0 mm | - | - | - |
| 1778194926 | 15.56° C | 44% | 1002.1 hPa | 0 mm | - | - | - |
| 1778194626 | 15.56° C | 43% | 1001.8 hPa | 0 mm | - | - | - |
| 1778194326 | 15.56° C | 43% | 1001.8 hPa | 0 mm | - | - | - |
| 1778194087 | 15.56° C | 43% | 1001.8 hPa | 0 mm | - | - | - |
| 1778194026 | 15.56° C | 42% | 1001.8 hPa | 0 mm | - | - | - |
| 1778193726 | 15.56° C | 40% | 1001.7 hPa | 0 mm | - | - | - |
| 1778193426 | 15.56° C | 43% | 1001.8 hPa | 0 mm | - | - | - |
| 1778193187 | 15.56° C | 40% | 1001.8 hPa | 0 mm | - | - | - |
| 1778193126 | 15.56° C | 40% | 1001.8 hPa | 0 mm | - | - | - |
| 1778192826 | 15.56° C | 41% | 1001.9 hPa | 0 mm | - | - | - |
| 1778192526 | 15.56° C | 44% | 1001.9 hPa | 0 mm | - | - | - |
| 1778192287 | 15.56° C | 44% | 1001.8 hPa | 0 mm | - | - | - |
| 1778192226 | 15.56° C | 44% | 1001.8 hPa | 0 mm | - | - | - |
| 1778191926 | 16.11° C | 48% | 1001.9 hPa | 0 mm | - | - | - |
| 1778191626 | 16.11° C | 43% | 1001.8 hPa | 0 mm | - | - | - |
| 1778191387 | 16.11° C | 42% | 1001.8 hPa | 0 mm | - | - | - |
| 1778191326 | 16.11° C | 43% | 1001.9 hPa | 0 mm | - | - | - |
| 1778191026 | 16.11° C | 44% | 1002 hPa | 0 mm | - | - | - |
| 1778190726 | 16.11° C | 43% | 1001.9 hPa | 0 mm | - | - | - |
* Rain latest hour (hover to see other rain measurements)
** Current wind speed in m/s (hover to see current wind gust speed)